| time (UTC) | temp F | wind direction | speed MPH | gust MPH | rain 1hr in | rain 24hr in | rain mn in | humidity % | barometer mb |
| 20260905185209 | 77 | 47 | 4.0 | 8.0 | 0.11 | 0.33 | 0.23 | 88 | 1011.1 |
| 20260905184706 | 76 | 27 | 4.0 | 6.0 | 0.20 | 0.33 | 0.23 | 87 | 1011.1 |
| 20260905184205 | 76 | 40 | 3.0 | 6.0 | 0.20 | 0.33 | 0.23 | 87 | 1011.4 |
| 20260905183707 | 76 | 27 | 2.0 | 5.0 | 0.20 | 0.33 | 0.23 | 88 | 1011.4 |
| 20260905183425 | 76 | 355 | 2.0 | 5.0 | 0.20 | 0.33 | 0.23 | 88 | 1012.0 |
| 20260905182931 | 76 | 27 | 1.0 | 4.0 | 0.20 | 0.33 | 0.23 | 87 | 1012.0 |
| 20260905182220 | 77 | 276 | 1.0 | 4.0 | 0.22 | 0.33 | 0.23 | 87 | 1012.0 |
| 20260905181930 | 77 | 284 | 1.0 | 4.0 | 0.22 | 0.33 | 0.23 | 86 | 1011.8 |
| 20260905181207 | 77 | 264 | 2.0 | 6.0 | 0.22 | 0.33 | 0.23 | 86 | 1012.1 |
| 20260905180719 | 77 | 235 | 3.0 | 7.0 | 0.22 | 0.33 | 0.23 | 85 | 1012.4 |
| 20260905180426 | 78 | 26 | 3.0 | 9.0 | 0.21 | 0.32 | 0.23 | 84 | 1012.5 |
| 20260905175705 | 79 | 257 | 3.0 | 9.0 | 0.19 | 0.30 | 0.21 | 83 | 1012.3 |
| 20260905175429 | 80 | 264 | 2.0 | 7.0 | 0.11 | 0.22 | 0.12 | 83 | 1012.2 |
| 20260905174706 | 81 | 272 | 1.0 | 4.0 | 0.02 | 0.13 | 0.03 | 83 | 1012.2 |
| 20260905174207 | 81 | 331 | 0.0 | 2.0 | 0.02 | 0.13 | 0.03 | 82 | 1011.8 |
| 20260905173706 | 82 | 331 | 1.0 | 2.0 | 0.02 | 0.13 | 0.03 | 81 | 1011.8 |
| 20260905173207 | 83 | 331 | 1.0 | 2.0 | 0.02 | 0.13 | 0.03 | 78 | 1011.6 |
| 20260905172926 | 84 | 331 | 1.0 | 2.0 | 0.02 | 0.13 | 0.03 | 76 | 1011.5 |
| 20260905172206 | 85 | 331 | 1.0 | 3.0 | 0.00 | 0.11 | 0.01 | 74 | 1011.6 |
| 20260905171659 | 86 | 331 | 1.0 | 3.0 | 0.00 | 0.11 | 0.01 | 73 | 1011.6 |
| 20260905171152 | 87 | 331 | 1.0 | 3.0 | 0.00 | 0.11 | 0.01 | 73 | 1011.6 |
| 20260905170646 | 87 | 331 | 1.0 | 4.0 | 0.00 | 0.11 | 0.01 | 70 | 1011.5 |
| 20260905170140 | 87 | 102 | 2.0 | 4.0 | 0.00 | 0.11 | 0.01 | 71 | 1011.6 |
| 20260905165635 | 87 | 45 | 2.0 | 4.0 | 0.00 | 0.11 | 0.01 | 70 | 1011.6 |
| 20260905165129 | 87 | 44 | 2.0 | 7.0 | 0.00 | 0.11 | 0.01 | 70 | 1011.6 |
| 20260905164852 | 87 | 64 | 3.0 | 7.0 | 0.00 | 0.11 | 0.01 | 68 | 1011.6 |
| 20260905164117 | 87 | 84 | 4.0 | 9.0 | 0.00 | 0.11 | 0.01 | 70 | 1011.5 |
| 20260905163611 | 87 | 64 | 5.0 | 10.0 | 0.00 | 0.11 | 0.01 | 69 | 1011.4 |
| 20260905163106 | 87 | 55 | 5.0 | 10.0 | 0.00 | 0.11 | 0.01 | 69 | 1011.5 |
| 20260905162559 | 87 | 67 | 3.0 | 10.0 | 0.00 | 0.11 | 0.01 | 69 | 1011.6 |
| 20260905162055 | 87 | 39 | 2.0 | 10.0 | 0.00 | 0.11 | 0.01 | 69 | 1011.6 |
| 20260905161558 | 86 | 7 | 3.0 | 7.0 | 0.00 | 0.11 | 0.01 | 71 | 1011.6 |
| 20260905161043 | 86 | 97 | 4.0 | 10.0 | 0.00 | 0.11 | 0.01 | 69 | 1011.6 |
| 20260905160541 | 87 | 51 | 4.0 | 10.0 | 0.00 | 0.11 | 0.01 | 69 | 1011.7 |
| 20260905160029 | 87 | 36 | 3.0 | 9.0 | 0.00 | 0.11 | 0.01 | 71 | 1011.8 |
| 20260905155525 | 86 | 22 | 3.0 | 9.0 | 0.00 | 0.11 | 0.01 | 72 | 1011.9 |
| 20260905155020 | 86 | 52 | 3.0 | 8.0 | 0.00 | 0.11 | 0.01 | 71 | 1012.0 |
| 20260905154739 | 85 | 93 | 4.0 | 9.0 | 0.00 | 0.11 | 0.01 | 70 | 1012.0 |
| 20260905154006 | 85 | 56 | 5.0 | 9.0 | 0.00 | 0.11 | 0.01 | 70 | 1012.1 |
| 20260905153500 | 85 | 8 | 5.0 | 10.0 | 0.00 | 0.11 | 0.01 | 70 | 1012.0 |
| 20260905153220 | 85 | 50 | 4.0 | 10.0 | 0.00 | 0.11 | 0.01 | 70 | 1012.0 |
| 20260905152448 | 85 | 276 | 4.0 | 9.0 | 0.00 | 0.11 | 0.01 | 70 | 1012.1 |
| 20260905152207 | 85 | 46 | 5.0 | 11.0 | 0.00 | 0.11 | 0.01 | 72 | 1012.2 |
| 20260905151434 | 86 | 31 | 4.0 | 11.0 | 0.00 | 0.11 | 0.01 | 71 | 1012.3 |
| 20260905150929 | 86 | 17 | 3.0 | 7.0 | 0.00 | 0.11 | 0.01 | 69 | 1012.4 |
| 20260905150424 | 85 | 223 | 4.0 | 9.0 | 0.00 | 0.11 | 0.01 | 70 | 1012.3 |
| 20260905150140 | 85 | 32 | 3.0 | 9.0 | 0.00 | 0.11 | 0.01 | 70 | 1012.3 |
| 20260905145411 | 85 | 12 | 3.0 | 8.0 | 0.00 | 0.11 | 0.01 | 72 | 1012.3 |
| 20260905144906 | 85 | 26 | 4.0 | 10.0 | 0.00 | 0.11 | 0.01 | 73 | 1012.2 |
| 20260905144401 | 85 | 53 | 4.0 | 10.0 | 0.00 | 0.11 | 0.01 | 72 | 1012.1 |
| 20260905144113 | 84 | 16 | 4.0 | 11.0 | 0.00 | 0.11 | 0.01 | 72 | 1012.2 |
| 20260905143346 | 84 | 18 | 4.0 | 11.0 | 0.00 | 0.11 | 0.01 | 71 | 1012.0 |
| 20260905142840 | 84 | 213 | 5.0 | 11.0 | 0.00 | 0.11 | 0.01 | 73 | 1012.0 |
| 20260905142553 | 83 | 61 | 6.0 | 11.0 | 0.00 | 0.11 | 0.01 | 74 | 1011.8 |
| 20260905141828 | 83 | 42 | 6.0 | 10.0 | 0.00 | 0.11 | 0.01 | 74 | 1011.7 |
| 20260905141325 | 84 | 63 | 4.0 | 9.0 | 0.00 | 0.11 | 0.01 | 73 | 1011.6 |
| 20260905140818 | 84 | 64 | 3.0 | 9.0 | 0.00 | 0.11 | 0.01 | 74 | 1011.6 |
| 20260905140537 | 84 | 186 | 3.0 | 6.0 | 0.00 | 0.11 | 0.01 | 74 | 1011.6 |
| 20260905135805 | 83 | 6 | 2.0 | 5.0 | 0.00 | 0.11 | 0.01 | 74 | 1011.6 |
| 20260905135307 | 83 | 44 | 2.0 | 5.0 | 0.00 | 0.11 | 0.01 | 76 | 1011.5 |
| 20260905134806 | 83 | 40 | 3.0 | 6.0 | 0.00 | 0.11 | 0.01 | 76 | 1011.4 |
| 20260905134303 | 82 | 338 | 2.0 | 6.0 | 0.00 | 0.11 | 0.01 | 78 | 1011.4 |
| 20260905133804 | 82 | 297 | 2.0 | 5.0 | 0.00 | 0.11 | 0.01 | 77 | 1011.4 |
| 20260905133304 | 82 | 4 | 2.0 | 6.0 | 0.00 | 0.11 | 0.01 | 79 | 1011.4 |
| 20260905132804 | 81 | 38 | 2.0 | 6.0 | 0.00 | 0.11 | 0.01 | 79 | 1011.4 |
| 20260905132757 | 81 | 350 | 2.0 | 6.0 | 0.00 | 0.11 | 0.01 | 79 | 1011.3 |
| 20260905132244 | 80 | 313 | 2.0 | 6.0 | 0.00 | 0.11 | 0.01 | 80 | 1011.4 |
| 20260905131300 | 80 | 288 | 1.0 | 4.0 | 0.00 | 0.11 | 0.01 | 82 | 1011.4 |
| 20260905130758 | 80 | 233 | 1.0 | 4.0 | 0.00 | 0.11 | 0.01 | 83 | 1011.4 |
| 20260905130257 | 79 | 322 | 1.0 | 4.0 | 0.00 | 0.11 | 0.01 | 85 | 1011.4 |
| 20260905130232 | 78 | 337 | 2.0 | 4.0 | 0.00 | 0.11 | 0.01 | 87 | 1011.5 |
| 20260905125515 | 77 | 288 | 2.0 | 6.0 | 0.00 | 0.11 | 0.01 | 88 | 1011.5 |
| 20260905124752 | 77 | 270 | 2.0 | 6.0 | 0.00 | 0.11 | 0.01 | 89 | 1011.5 |
| 20260905124251 | 76 | 269 | 2.0 | 4.0 | 0.00 | 0.11 | 0.01 | 90 | 1011.6 |
| 20260905123752 | 76 | 305 | 2.0 | 4.0 | 0.00 | 0.11 | 0.01 | 91 | 1011.5 |
| 20260905123241 | 75 | 286 | 2.0 | 4.0 | 0.00 | 0.11 | 0.01 | 91 | 1011.5 |
| 20260905122739 | 75 | 309 | 3.0 | 5.0 | 0.00 | 0.11 | 0.01 | 92 | 1011.4 |
| 20260905122717 | 74 | 328 | 3.0 | 5.0 | 0.00 | 0.11 | 0.01 | 92 | 1011.4 |
| 20260905121740 | 74 | 290 | 3.0 | 5.0 | 0.00 | 0.11 | 0.01 | 92 | 1011.4 |
| 20260905121239 | 74 | 282 | 2.0 | 5.0 | 0.00 | 0.11 | 0.01 | 92 | 1011.6 |
| 20260905120733 | 73 | 290 | 2.0 | 5.0 | 0.00 | 0.11 | 0.01 | 92 | 1011.6 |
| 20260905120226 | 73 | 284 | 2.0 | 4.0 | 0.00 | 0.11 | 0.01 | 92 | 1011.6 |
| 20260905115722 | 73 | 274 | 2.0 | 5.0 | 0.00 | 0.11 | 0.01 | 92 | 1011.5 |
| 20260905115215 | 72 | 288 | 2.0 | 5.0 | 0.00 | 0.11 | 0.01 | 92 | 1011.5 |
| 20260905114711 | 72 | 277 | 1.0 | 3.0 | 0.00 | 0.11 | 0.01 | 92 | 1011.4 |
| 20260905114423 | 72 | 276 | 2.0 | 4.0 | 0.00 | 0.11 | 0.01 | 92 | 1011.5 |
| 20260905113657 | 71 | 280 | 2.0 | 4.0 | 0.00 | 0.11 | 0.01 | 92 | 1011.4 |
| 20260905113151 | 71 | 269 | 1.0 | 4.0 | 0.00 | 0.11 | 0.01 | 92 | 1011.4 |
| 20260905112646 | 71 | 278 | 1.0 | 3.0 | 0.00 | 0.11 | 0.01 | 92 | 1011.5 |
| 20260905112141 | 70 | 278 | 1.0 | 3.0 | 0.00 | 0.11 | 0.01 | 92 | 1011.4 |
| 20260905111632 | 70 | 271 | 1.0 | 3.0 | 0.00 | 0.11 | 0.01 | 92 | 1011.3 |
| 20260905111128 | 70 | 259 | 0.0 | 1.0 | 0.00 | 0.11 | 0.01 | 92 | 1011.4 |
| 20260905110634 | 70 | 258 | 0.0 | 1.0 | 0.00 | 0.11 | 0.01 | 92 | 1011.3 |
| 20260905110117 | 70 | 257 | 0.0 | 1.0 | 0.00 | 0.11 | 0.01 | 92 | 1011.3 |
| 20260905105609 | 70 | 257 | 0.0 | 1.0 | 0.00 | 0.11 | 0.01 | 92 | 1011.2 |
| 20260905105112 | 70 | 257 | 0.0 | 1.0 | 0.00 | 0.11 | 0.01 | 92 | 1011.2 |
| 20260905104558 | 70 | 257 | 0.0 | 0.0 | 0.00 | 0.11 | 0.01 | 92 | 1011.1 |
| 20260905104052 | 70 | 257 | 0.0 | 0.0 | 0.00 | 0.11 | 0.01 | 92 | 1011.1 |
| 20260905103812 | 70 | 257 | 0.0 | 0.0 | 0.00 | 0.11 | 0.01 | 91 | 1011.0 |
| 20260905103038 | 70 | 257 | 0.0 | 0.0 | 0.00 | 0.11 | 0.01 | 91 | 1011.0 |
| 20260905102818 | 70 | 256 | 0.0 | 0.0 | 0.00 | 0.11 | 0.01 | 91 | 1010.9 |
| 20260905102038 | 70 | 257 | 0.0 | 0.0 | 0.00 | 0.11 | 0.01 | 91 | 1010.8 |
| 20260905101538 | 70 | 257 | 0.0 | 0.0 | 0.00 | 0.11 | 0.01 | 91 | 1010.9 |
| 20260905101252 | 70 | 257 | 0.0 | 0.0 | 0.00 | 0.11 | 0.01 | 91 | 1010.8 |
| 20260905100532 | 70 | 257 | 0.0 | 0.0 | 0.00 | 0.11 | 0.01 | 91 | 1010.8 |
| 20260905100309 | 70 | 257 | 0.0 | 1.0 | 0.00 | 0.11 | 0.01 | 91 | 1010.8 |
| 20260905095753 | 70 | 257 | 0.0 | 1.0 | 0.00 | 0.11 | 0.01 | 91 | 1010.6 |
| 20260905095034 | 70 | 257 | 0.0 | 2.0 | 0.00 | 0.11 | 0.01 | 91 | 1010.7 |
| 20260905094531 | 70 | 257 | 1.0 | 2.0 | 0.00 | 0.11 | 0.01 | 91 | 1010.7 |
| 20260905094035 | 70 | 257 | 1.0 | 2.0 | 0.00 | 0.11 | 0.01 | 91 | 1010.8 |
| 20260905093535 | 70 | 257 | 1.0 | 2.0 | 0.00 | 0.11 | 0.01 | 91 | 1010.8 |
| 20260905093032 | 70 | 255 | 1.0 | 3.0 | 0.00 | 0.11 | 0.01 | 91 | 1010.9 |
| 20260905092748 | 71 | 257 | 1.0 | 3.0 | 0.00 | 0.11 | 0.01 | 91 | 1010.9 |
| 20260905092253 | 71 | 265 | 1.0 | 6.0 | 0.00 | 0.11 | 0.01 | 91 | 1011.0 |
| 20260905091530 | 71 | 267 | 2.0 | 6.0 | 0.00 | 0.11 | 0.01 | 91 | 1011.0 |
| 20260905091026 | 71 | 252 | 2.0 | 7.0 | 0.00 | 0.11 | 0.01 | 91 | 1011.0 |
| 20260905090528 | 71 | 242 | 2.0 | 7.0 | 0.00 | 0.11 | 0.01 | 91 | 1011.0 |
| 20260905090028 | 71 | 269 | 2.0 | 4.0 | 0.00 | 0.11 | 0.01 | 91 | 1011.1 |
| 20260905085528 | 71 | 242 | 2.0 | 4.0 | 0.00 | 0.11 | 0.01 | 91 | 1011.1 |
| 20260905085027 | 71 | 248 | 2.0 | 4.0 | 0.00 | 0.11 | 0.01 | 91 | 1011.0 |
| 20260905084527 | 71 | 250 | 2.0 | 6.0 | 0.00 | 0.11 | 0.01 | 91 | 1011.0 |
| 20260905084027 | 71 | 255 | 3.0 | 6.0 | 0.00 | 0.11 | 0.01 | 91 | 1011.2 |
| 20260905083526 | 71 | 261 | 3.0 | 6.0 | 0.00 | 0.11 | 0.01 | 91 | 1011.2 |
| 20260905083028 | 71 | 287 | 3.0 | 7.0 | 0.00 | 0.11 | 0.01 | 91 | 1011.3 |
| 20260905082751 | 71 | 263 | 3.0 | 7.0 | 0.00 | 0.11 | 0.01 | 91 | 1011.2 |
| 20260905082251 | 71 | 241 | 3.0 | 7.0 | 0.00 | 0.11 | 0.01 | 91 | 1011.2 |
| 20260905081748 | 71 | 261 | 3.0 | 7.0 | 0.00 | 0.11 | 0.01 | 91 | 1011.3 |
| 20260905081120 | 71 | 247 | 3.0 | 6.0 | 0.00 | 0.11 | 0.01 | 91 | 1011.2 |
| 20260905080527 | 71 | 266 | 2.0 | 6.0 | 0.00 | 0.11 | 0.01 | 91 | 1011.2 |
| 20260905080027 | 71 | 282 | 1.0 | 3.0 | 0.00 | 0.11 | 0.01 | 91 | 1011.2 |
| 20260905075520 | 71 | 219 | 1.0 | 4.0 | 0.00 | 0.11 | 0.01 | 91 | 1011.2 |
| 20260905075013 | 71 | 217 | 1.0 | 4.0 | 0.00 | 0.11 | 0.01 | 91 | 1011.2 |
| 20260905074508 | 71 | 249 | 2.0 | 7.0 | 0.00 | 0.11 | 0.01 | 91 | 1011.5 |
| 20260905074002 | 71 | 261 | 2.0 | 7.0 | 0.00 | 0.11 | 0.01 | 91 | 1011.5 |
| 20260905073456 | 71 | 259 | 2.0 | 7.0 | 0.00 | 0.11 | 0.01 | 91 | 1011.4 |
| 20260905072950 | 71 | 255 | 2.0 | 8.0 | 0.00 | 0.11 | 0.01 | 91 | 1011.2 |
| 20260905072443 | 71 | 267 | 2.0 | 8.0 | 0.00 | 0.11 | 0.01 | 91 | 1011.3 |
| 20260905071937 | 71 | 233 | 2.0 | 4.0 | 0.00 | 0.11 | 0.01 | 91 | 1011.2 |
| 20260905071432 | 71 | 246 | 2.0 | 4.0 | 0.00 | 0.11 | 0.01 | 91 | 1011.3 |
| 20260905070926 | 71 | 265 | 2.0 | 6.0 | 0.00 | 0.11 | 0.01 | 91 | 1011.1 |
| 20260905070421 | 71 | 273 | 2.0 | 6.0 | 0.00 | 0.11 | 0.01 | 91 | 1011.1 |
| 20260905065914 | 71 | 187 | 2.0 | 6.0 | 0.00 | 0.11 | 0.01 | 91 | 1011.2 |
| 20260905065625 | 71 | 252 | 2.0 | 8.0 | 0.00 | 0.11 | 0.01 | 91 | 1011.3 |
| 20260905064903 | 71 | 250 | 3.0 | 8.0 | 0.00 | 0.11 | 0.01 | 91 | 1011.5 |
| 20260905064356 | 71 | 234 | 3.0 | 8.0 | 0.01 | 0.11 | 0.01 | 91 | 1011.6 |
| 20260905063849 | 71 | 247 | 2.0 | 6.0 | 0.01 | 0.11 | 0.01 | 91 | 1011.7 |
| 20260905063344 | 71 | 253 | 3.0 | 7.0 | 0.01 | 0.11 | 0.01 | 91 | 1011.6 |
| 20260905063103 | 71 | 286 | 2.0 | 7.0 | 0.01 | 0.11 | 0.01 | 91 | 1011.6 |
| 20260905062815 | 71 | 251 | 3.0 | 8.0 | 0.01 | 0.11 | 0.01 | 91 | 1011.7 |
| 20260905062050 | 71 | 239 | 3.0 | 8.0 | 0.01 | 0.11 | 0.01 | 90 | 1011.8 |
| 20260905061320 | 71 | 255 | 2.0 | 4.0 | 0.01 | 0.11 | 0.01 | 90 | 1011.9 |
| 20260905060814 | 71 | 249 | 2.0 | 6.0 | 0.01 | 0.11 | 0.01 | 90 | 1012.0 |
| 20260905060323 | 71 | 258 | 2.0 | 6.0 | 0.01 | 0.11 | 0.01 | 90 | 1012.1 |
| 20260905060025 | 71 | 271 | 2.0 | 5.0 | 0.01 | 0.11 | 0.01 | 90 | 1012.1 |
| 20260905055256 | 71 | 271 | 2.0 | 4.0 | 0.01 | 0.11 | 0.01 | 90 | 1012.0 |
| 20260905054751 | 71 | 256 | 2.0 | 4.0 | 0.01 | 0.11 | 0.01 | 90 | 1012.1 |
| 20260905054506 | 71 | 263 | 1.0 | 4.0 | 0.00 | 0.10 | 0.00 | 90 | 1012.1 |
| 20260905053738 | 72 | 249 | 1.0 | 4.0 | 0.00 | 0.10 | 0.00 | 90 | 1012.1 |
| 20260905053232 | 72 | 249 | 2.0 | 9.0 | 0.00 | 0.10 | 0.00 | 90 | 1012.1 |
| 20260905052733 | 72 | 281 | 3.0 | 9.0 | 0.00 | 0.10 | 0.00 | 90 | 1012.2 |
| 20260905052233 | 72 | 270 | 2.0 | 8.0 | 0.00 | 0.10 | 0.00 | 90 | 1012.2 |
| 20260905051734 | 72 | 226 | 2.0 | 5.0 | 0.00 | 0.10 | 0.00 | 90 | 1012.2 |
| 20260905051230 | 72 | 264 | 2.0 | 6.0 | 0.00 | 0.10 | 0.00 | 90 | 1012.2 |
| 20260905050734 | 72 | 271 | 2.0 | 6.0 | 0.00 | 0.10 | 0.00 | 91 | 1012.3 |
| 20260905050227 | 72 | 284 | 2.0 | 7.0 | 0.00 | 0.10 | 0.00 | 91 | 1012.4 |
| 20260905045952 | 72 | 234 | 3.0 | 8.0 | 0.00 | 0.10 | 0.00 | 91 | 1012.6 |
| 20260905045228 | 72 | 257 | 3.0 | 8.0 | 0.00 | 0.10 | 0.00 | 91 | 1012.5 |
| 20260905044724 | 72 | 265 | 4.0 | 8.0 | 0.00 | 0.10 | 0.00 | 91 | 1012.5 |
| 20260905044222 | 72 | 276 | 4.0 | 7.0 | 0.00 | 0.10 | 0.00 | 90 | 1012.6 |
| 20260905043941 | 72 | 279 | 3.0 | 7.0 | 0.00 | 0.10 | 0.00 | 90 | 1012.6 |
| 20260905043222 | 72 | 257 | 4.0 | 7.0 | 0.00 | 0.10 | 0.00 | 90 | 1012.6 |
| 20260905042723 | 72 | 260 | 3.0 | 7.0 | 0.00 | 0.10 | 0.00 | 90 | 1012.6 |
| 20260905042223 | 72 | 257 | 3.0 | 7.0 | 0.00 | 0.10 | 0.00 | 90 | 1012.6 |
| 20260905041945 | 72 | 248 | 3.0 | 7.0 | 0.00 | 0.10 | 0.00 | 90 | 1012.6 |
| 20260905041223 | 72 | 216 | 3.0 | 7.0 | 0.00 | 0.10 | 0.00 | 90 | 1012.6 |
| 20260905040722 | 72 | 244 | 3.0 | 7.0 | 0.00 | 0.10 | 0.00 | 90 | 1012.6 |
| 20260905040444 | 72 | 251 | 3.0 | 7.0 | 0.00 | 0.10 | 0.00 | 90 | 1012.5 |
| 20260905035723 | 72 | 224 | 2.0 | 7.0 | 0.00 | 0.10 | 0.10 | 90 | 1012.6 |
| 20260905035221 | 72 | 270 | 2.0 | 7.0 | 0.00 | 0.10 | 0.10 | 90 | 1012.5 |
| 20260905034719 | 72 | 188 | 3.0 | 6.0 | 0.00 | 0.10 | 0.10 | 90 | 1012.5 |
| 20260905034218 | 72 | 203 | 3.0 | 6.0 | 0.00 | 0.10 | 0.10 | 90 | 1012.6 |
| 20260905033718 | 72 | 254 | 3.0 | 6.0 | 0.00 | 0.10 | 0.10 | 90 | 1012.7 |
| 20260905033218 | 72 | 268 | 3.0 | 8.0 | 0.00 | 0.10 | 0.10 | 90 | 1012.6 |
| 20260905032937 | 72 | 267 | 3.0 | 9.0 | 0.00 | 0.10 | 0.10 | 90 | 1012.6 |
| 20260905032656 | 72 | 263 | 3.0 | 9.0 | 0.00 | 0.10 | 0.10 | 90 | 1012.4 |
| 20260905031706 | 72 | 289 | 2.0 | 6.0 | 0.00 | 0.10 | 0.10 | 90 | 1012.4 |
| 20260905031201 | 72 | 271 | 1.0 | 6.0 | 0.00 | 0.10 | 0.10 | 90 | 1012.5 |
| 20260905030655 | 72 | 255 | 2.0 | 4.0 | 0.00 | 0.10 | 0.10 | 90 | 1012.6 |
| 20260905030201 | 72 | 263 | 2.0 | 6.0 | 0.00 | 0.10 | 0.10 | 90 | 1012.7 |
| 20260905025641 | 72 | 273 | 2.0 | 6.0 | 0.00 | 0.10 | 0.10 | 90 | 1012.6 |
| 20260905025137 | 72 | 255 | 2.0 | 6.0 | 0.00 | 0.10 | 0.10 | 90 | 1012.7 |
| 20260905024629 | 72 | 226 | 2.0 | 5.0 | 0.00 | 0.10 | 0.10 | 90 | 1012.8 |
| 20260905024125 | 72 | 211 | 1.0 | 4.0 | 0.00 | 0.10 | 0.10 | 90 | 1012.8 |
| 20260905023619 | 73 | 197 | 1.0 | 4.0 | 0.00 | 0.10 | 0.10 | 90 | 1013.0 |
| 20260905023112 | 73 | 250 | 2.0 | 4.0 | 0.00 | 0.10 | 0.10 | 90 | 1013.2 |
| 20260905022823 | 73 | 246 | 1.0 | 3.0 | 0.00 | 0.10 | 0.10 | 90 | 1013.5 |
| 20260905022059 | 73 | 240 | 2.0 | 5.0 | 0.00 | 0.10 | 0.10 | 90 | 1013.4 |
| 20260905021552 | 73 | 213 | 3.0 | 8.0 | 0.00 | 0.10 | 0.10 | 90 | 1013.7 |
| 20260905021053 | 73 | 259 | 4.0 | 10.0 | 0.00 | 0.10 | 0.10 | 89 | 1013.9 |
| 20260905020542 | 73 | 270 | 3.0 | 10.0 | 0.00 | 0.10 | 0.10 | 89 | 1014.3 |
| 20260905020049 | 73 | 266 | 2.0 | 7.0 | 0.00 | 0.10 | 0.10 | 89 | 1014.1 |
| 20260905015529 | 73 | 229 | 3.0 | 8.0 | 0.00 | 0.10 | 0.10 | 89 | 1014.3 |
| 20260905015245 | 73 | 235 | 2.0 | 8.0 | 0.00 | 0.10 | 0.10 | 89 | 1014.4 |
| 20260905014518 | 73 | 230 | 3.0 | 7.0 | 0.00 | 0.10 | 0.10 | 89 | 1014.2 |
| 20260905014014 | 73 | 211 | 3.0 | 6.0 | 0.00 | 0.10 | 0.10 | 89 | 1014.3 |
| 20260905013727 | 73 | 253 | 3.0 | 6.0 | 0.00 | 0.10 | 0.10 | 89 | 1014.2 |
| 20260905013001 | 73 | 267 | 4.0 | 8.0 | 0.00 | 0.10 | 0.10 | 89 | 1013.7 |
| 20260905012453 | 73 | 228 | 4.0 | 8.0 | 0.00 | 0.10 | 0.10 | 89 | 1013.8 |
| 20260905011947 | 73 | 305 | 4.0 | 8.0 | 0.01 | 0.10 | 0.10 | 89 | 1013.3 |
| 20260905011442 | 73 | 309 | 4.0 | 8.0 | 0.01 | 0.10 | 0.10 | 88 | 1013.1 |
| 20260905011153 | 73 | 302 | 4.0 | 9.0 | 0.02 | 0.10 | 0.10 | 88 | 1012.6 |
| 20260905010430 | 73 | 232 | 3.0 | 9.0 | 0.03 | 0.10 | 0.10 | 88 | 1012.1 |
| 20260905005924 | 73 | 260 | 2.0 | 7.0 | 0.06 | 0.10 | 0.10 | 88 | 1011.3 |
| 20260905005639 | 74 | 122 | 2.0 | 7.0 | 0.06 | 0.10 | 0.10 | 88 | 1010.7 |
| 20260905004912 | 74 | 212 | 2.0 | 4.0 | 0.08 | 0.10 | 0.10 | 88 | 1010.8 |
| 20260905004405 | 74 | 242 | 2.0 | 4.0 | 0.09 | 0.10 | 0.10 | 88 | 1011.9 |
| 20260905003900 | 74 | 238 | 2.0 | 6.0 | 0.09 | 0.10 | 0.10 | 87 | 1012.5 |
| 20260905003356 | 74 | 272 | 3.0 | 12.0 | 0.09 | 0.10 | 0.10 | 87 | 1012.8 |
| 20260905002849 | 74 | 255 | 3.0 | 12.0 | 0.10 | 0.10 | 0.10 | 87 | 1012.7 |
| 20260905002341 | 75 | 203 | 3.0 | 13.0 | 0.10 | 0.10 | 0.10 | 86 | 1013.0 |
| 20260905001835 | 75 | 186 | 4.0 | 13.0 | 0.09 | 0.09 | 0.09 | 86 | 1013.5 |
| 20260905001342 | 76 | 190 | 6.0 | 20.0 | 0.09 | 0.09 | 0.09 | 85 | 1013.7 |
| 20260905000823 | 77 | 251 | 7.0 | 20.0 | 0.08 | 0.08 | 0.08 | 84 | 1013.6 |
| 20260905000318 | 78 | 199 | 7.0 | 19.0 | 0.06 | 0.06 | 0.06 | 84 | 1013.9 |
| 20260904235812 | 79 | 174 | 6.0 | 19.0 | 0.04 | 0.04 | 0.04 | 83 | 1013.5 |
| 20260904235306 | 80 | 175 | 5.0 | 13.0 | 0.03 | 0.03 | 0.04 | 82 | 1014.4 |
| 20260904235029 | 81 | 275 | 4.0 | 14.0 | 0.02 | 0.02 | 0.02 | 83 | 1014.4 |
| 20260904234253 | 82 | 228 | 3.0 | 14.0 | 0.01 | 0.01 | 0.01 | 82 | 1014.3 |
| 20260904233749 | 83 | 224 | 2.0 | 5.0 | 0.01 | 0.01 | 0.01 | 81 | 1013.6 |
| 20260904233243 | 84 | 207 | 2.0 | 4.0 | 0.01 | 0.01 | 0.01 | 79 | 1012.7 |
| 20260904232737 | 84 | 76 | 2.0 | 4.0 | 0.00 | 0.00 | 0.00 | 76 | 1011.5 |
| 20260904232230 | 85 | 24 | 2.0 | 5.0 | 0.00 | 0.00 | 0.00 | 75 | 1012.0 |
| 20260904231724 | 86 | 22 | 2.0 | 7.0 | 0.00 | 0.00 | 0.00 | 75 | 1012.6 |
| 20260904231217 | 86 | 203 | 2.0 | 6.0 | 0.00 | 0.00 | 0.00 | 77 | 1012.9 |
| 20260904230913 | 87 | 163 | 1.0 | 3.0 | 0.00 | 0.00 | 0.00 | 78 | 1012.6 |
| 20260904230759 | 87 | 197 | 1.0 | 5.0 | 0.00 | 0.00 | 0.00 | 77 | 1012.8 |
| 20260904225700 | 87 | 162 | 2.0 | 7.0 | 0.00 | 0.00 | 0.00 | 79 | 1012.4 |
| 20260904225154 | 87 | 54 | 3.0 | 7.0 | 0.00 | 0.00 | 0.00 | 79 | 1012.2 |
| 20260904225132 | 88 | 86 | 2.0 | 6.0 | 0.00 | 0.00 | 0.00 | 78 | 1012.0 |
| 20260904224141 | 88 | 103 | 2.0 | 6.0 | 0.00 | 0.00 | 0.00 | 79 | 1012.0 |
| 20260904223858 | 88 | 44 | 3.0 | 5.0 | 0.00 | 0.00 | 0.00 | 79 | 1011.8 |
| 20260904223132 | 89 | 102 | 4.0 | 6.0 | 0.00 | 0.00 | 0.00 | 78 | 1011.8 |
| 20260904222624 | 89 | 47 | 4.0 | 6.0 | 0.00 | 0.00 | 0.00 | 78 | 1011.9 |
| 20260904222119 | 90 | 52 | 4.0 | 11.0 | 0.00 | 0.00 | 0.00 | 77 | 1011.9 |
| 20260904221834 | 90 | 74 | 5.0 | 12.0 | 0.00 | 0.00 | 0.00 | 75 | 1011.8 |
| 20260904221108 | 91 | 60 | 6.0 | 12.0 | 0.00 | 0.00 | 0.00 | 74 | 1011.9 |
| 20260904220833 | 92 | 51 | 6.0 | 11.0 | 0.00 | 0.00 | 0.00 | 72 | 1011.9 |
| 20260904220114 | 93 | 45 | 5.0 | 10.0 | 0.00 | 0.00 | 0.00 | 69 | 1011.9 |
| 20260904215603 | 94 | 41 | 3.0 | 8.0 | 0.00 | 0.00 | 0.00 | 61 | 1011.9 |
| 20260904215102 | 94 | 26 | 3.0 | 6.0 | 0.00 | 0.00 | 0.00 | 63 | 1011.6 |
| 20260904214602 | 94 | 58 | 3.0 | 5.0 | 0.00 | 0.00 | 0.00 | 61 | 1011.8 |
| 20260904214324 | 95 | 20 | 3.0 | 6.0 | 0.00 | 0.00 | 0.00 | 60 | 1011.9 |
| 20260904213602 | 95 | 45 | 2.0 | 6.0 | 0.00 | 0.00 | 0.00 | 61 | 1012.1 |
| 20260904213100 | 96 | 46 | 3.0 | 5.0 | 0.00 | 0.00 | 0.00 | 62 | 1012.1 |
| 20260904213048 | 96 | 47 | 2.0 | 5.0 | 0.00 | 0.00 | 0.00 | 57 | 1012.1 |
| 20260904212059 | 97 | 22 | 2.0 | 5.0 | 0.00 | 0.00 | 0.00 | 56 | 1012.1 |
| 20260904211559 | 97 | 12 | 3.0 | 7.0 | 0.00 | 0.00 | 0.00 | 57 | 1012.0 |
| 20260904211056 | 98 | 306 | 3.0 | 7.0 | 0.00 | 0.00 | 0.00 | 55 | 1011.9 |
| 20260904210825 | 98 | 302 | 2.0 | 5.0 | 0.00 | 0.00 | 0.00 | 54 | 1011.5 |
| 20260904210703 | 98 | 286 | 2.0 | 6.0 | 0.00 | 0.00 | 0.00 | 53 | 1011.4 |
| 20260904205558 | 98 | 306 | 2.0 | 6.0 | 0.00 | 0.00 | 0.00 | 55 | 1011.2 |
| 20260904205057 | 98 | 290 | 2.0 | 4.0 | 0.00 | 0.00 | 0.00 | 54 | 1011.1 |
| 20260904204556 | 98 | 330 | 1.0 | 3.0 | 0.00 | 0.00 | 0.00 | 55 | 1011.1 |
| 20260904204051 | 98 | 285 | 2.0 | 5.0 | 0.00 | 0.00 | 0.00 | 56 | 1011.1 |
| 20260904203550 | 98 | 284 | 3.0 | 7.0 | 0.00 | 0.00 | 0.00 | 56 | 1011.0 |
| 20260904203050 | 98 | 287 | 4.0 | 11.0 | 0.00 | 0.00 | 0.00 | 55 | 1011.3 |
| 20260904202550 | 98 | 238 | 5.0 | 11.0 | 0.00 | 0.00 | 0.00 | 55 | 1011.2 |
| 20260904202048 | 98 | 269 | 5.0 | 11.0 | 0.00 | 0.00 | 0.00 | 54 | 1011.2 |
| 20260904201548 | 98 | 271 | 4.0 | 11.0 | 0.00 | 0.00 | 0.00 | 53 | 1011.4 |
| 20260904201242 | 98 | 251 | 3.0 | 7.0 | 0.00 | 0.00 | 0.00 | 53 | 1011.5 |
| 20260904201132 | 98 | 278 | 3.0 | 7.0 | 0.00 | 0.00 | 0.00 | 53 | 1011.4 |
| 20260904200326 | 98 | 299 | 3.0 | 8.0 | 0.00 | 0.00 | 0.00 | 56 | 1011.5 |
| 20260904195545 | 98 | 313 | 4.0 | 9.0 | 0.00 | 0.00 | 0.00 | 54 | 1011.6 |
| 20260904195044 | 98 | 269 | 2.0 | 9.0 | 0.00 | 0.00 | 0.00 | 56 | 1011.6 |
| 20260904194545 | 98 | 303 | 2.0 | 7.0 | 0.00 | 0.00 | 0.00 | 60 | 1011.7 |
| 20260904194046 | 98 | 280 | 3.0 | 8.0 | 0.00 | 0.00 | 0.00 | 60 | 1011.8 |
| 20260904193540 | 98 | 297 | 3.0 | 8.0 | 0.00 | 0.00 | 0.00 | 56 | 1011.8 |
| 20260904193041 | 98 | 229 | 2.0 | 6.0 | 0.00 | 0.00 | 0.00 | 54 | 1011.9 |
| 20260904192541 | 98 | 216 | 2.0 | 9.0 | 0.00 | 0.00 | 0.00 | 57 | 1012.1 |
| 20260904192040 | 98 | 301 | 4.0 | 10.0 | 0.00 | 0.00 | 0.00 | 57 | 1012.1 |
| 20260904191541 | 98 | 284 | 4.0 | 10.0 | 0.00 | 0.00 | 0.00 | 54 | 1012.2 |
| 20260904191041 | 98 | 247 | 3.0 | 9.0 | 0.00 | 0.00 | 0.00 | 61 | 1012.5 |
| 20260904190541 | 97 | 281 | 4.0 | 9.0 | 0.00 | 0.00 | 0.00 | 54 | 1012.6 |
| 20260904190040 | 97 | 191 | 3.0 | 8.0 | 0.00 | 0.00 | 0.00 | 58 | 1012.6 |